Etusivu
METAR-TAF:

METAR-TAF

Lentoasemat :

Killeen, Texas, Yhdysvallat

Leveyspiiri: 31-05N, Pituuspiiri: 097-41W, korkeus merenpinnasta: 258 m

Tämänhetkinen sää

Tämä raportti tehtiin 41 minuuttia sitten, kello 20.56 UTC
Tuuli 13 kn kaakosta puuskistuen 16 kn:hen
Lämpötila 36°C
Kosteus 45%
Ilmanpaine 1012 hPa
Näkyvyys: 16.1 km

METAR: KILE 092056Z AUTO 14013G16KT 10SM 36/22 A2988 RMK AO2 SLP101 T03610222 55010 $

Aika: 16:37 (21:37 UTC)


TAF: puuttuu

Säähavainnot ja -ennusteet yli 4000 lentoasemalta (METAR- ja TAF-raportit).

Käytössä olevat sääasemat on merkitty karttaan keltaisilla ja punaisilla pisteillä.

Aseta hiiri pisteen päälle nähdäksesi sääaseman nimen.

Klikkaa sitten nähdäksesi säähavainnot ja -ennusteet.

Kartan vaihtaminen: klikkaa mustalla rastilla varustettuja vihreitä pisteitä, niin voit zoomata sisään; viivalla varustettua vihreää pistettä, niin voit zoomata ulos tai vihreitä nuolia, niin pääset viereisille kartoille.


METAR-TAF: